createdAt,value
2019-01-10T00:01:03.562Z,2.93
2019-01-10T00:05:12.090Z,2.98
2019-01-10T00:09:20.864Z,2.94
2019-01-10T00:13:27.863Z,2.89
2019-01-10T00:17:34.825Z,2.98
2019-01-10T00:21:41.933Z,3.08
2019-01-10T00:25:49.102Z,2.94
2019-01-10T00:29:55.971Z,2.97
2019-01-10T00:34:02.958Z,3.00
2019-01-10T00:38:09.940Z,2.95
2019-01-10T00:42:16.915Z,3.03
2019-01-10T00:46:23.828Z,2.99
2019-01-10T00:50:30.819Z,3.00
2019-01-10T00:54:37.904Z,3.03
2019-01-10T00:58:44.923Z,2.95
2019-01-10T01:02:55.405Z,2.89
2019-01-10T01:07:02.602Z,2.98
2019-01-10T01:11:10.341Z,2.86
2019-01-10T01:15:18.765Z,2.91
2019-01-10T01:19:25.921Z,2.92
2019-01-10T01:23:32.803Z,2.99
2019-01-10T01:27:39.880Z,2.93
2019-01-10T01:31:47.824Z,2.99
2019-01-10T01:35:54.771Z,2.93
2019-01-10T01:40:01.756Z,2.89
2019-01-10T01:44:08.755Z,2.86
2019-01-10T01:48:16.776Z,2.80
2019-01-10T01:52:23.655Z,2.83
2019-01-10T01:56:30.623Z,2.86
2019-01-10T02:00:40.318Z,2.84
2019-01-10T02:04:47.014Z,2.85
2019-01-10T02:08:57.859Z,2.84
2019-01-10T02:13:05.317Z,2.81
2019-01-10T02:17:13.474Z,2.88
2019-01-10T02:21:20.695Z,2.86
2019-01-10T02:25:28.454Z,2.82
2019-01-10T02:29:35.499Z,2.80
2019-01-10T02:33:42.512Z,2.83
2019-01-10T02:37:49.678Z,2.78
2019-01-10T02:41:56.700Z,2.92
2019-01-10T02:46:06.036Z,2.85
2019-01-10T02:50:21.227Z,2.86
2019-01-10T02:54:29.475Z,2.80
2019-01-10T02:58:38.790Z,2.79
2019-01-10T03:02:46.155Z,2.81
2019-01-10T03:06:53.239Z,2.80
2019-01-10T03:11:01.399Z,2.78
2019-01-10T03:15:08.928Z,2.82
2019-01-10T03:19:15.998Z,2.90
2019-01-10T03:23:25.531Z,2.87
2019-01-10T03:27:32.508Z,2.77
2019-01-10T03:31:39.436Z,2.81
2019-01-10T03:35:46.748Z,2.79
2019-01-10T03:39:53.581Z,2.88
2019-01-10T03:44:02.165Z,2.83
2019-01-10T03:48:09.085Z,2.82
2019-01-10T03:52:16.045Z,2.73
2019-01-10T03:56:25.359Z,2.78
2019-01-10T04:00:32.378Z,2.71
2019-01-10T04:04:39.743Z,2.76
2019-01-10T04:08:49.040Z,2.80
2019-01-10T04:12:58.067Z,2.76
2019-01-10T04:17:05.080Z,2.75
2019-01-10T04:21:17.475Z,2.81
2019-01-10T04:25:24.474Z,2.77
2019-01-10T04:29:31.202Z,2.72
2019-01-10T04:33:38.187Z,2.77
2019-01-10T04:37:45.132Z,2.68
2019-01-10T04:41:54.376Z,2.68
2019-01-10T04:46:01.217Z,2.69
2019-01-10T04:50:09.470Z,2.71
2019-01-10T04:54:16.468Z,2.59
2019-01-10T04:58:23.367Z,2.68
2019-01-10T05:02:30.754Z,2.63
2019-01-10T05:06:37.827Z,2.68
2019-01-10T05:10:44.860Z,2.64
2019-01-10T05:14:52.384Z,2.60
2019-01-10T05:18:59.392Z,2.58
2019-01-10T05:23:08.294Z,2.57
2019-01-10T05:27:15.275Z,2.55
2019-01-10T05:31:22.276Z,2.50
2019-01-10T05:35:29.173Z,2.49
2019-01-10T05:39:36.884Z,2.52
2019-01-10T05:43:43.835Z,2.56
2019-01-10T05:47:51.810Z,2.59
2019-01-10T05:51:58.971Z,2.66
2019-01-10T05:56:15.024Z,2.67
2019-01-10T06:00:27.631Z,2.58
2019-01-10T06:04:36.319Z,2.71
2019-01-10T06:08:43.460Z,2.52
2019-01-10T06:12:50.591Z,2.57
2019-01-10T06:16:57.533Z,2.59
2019-01-10T06:21:04.597Z,2.54
2019-01-10T06:25:11.604Z,2.49
2019-01-10T06:29:18.785Z,2.49
2019-01-10T06:33:26.607Z,2.46
2019-01-10T06:37:33.706Z,2.46
2019-01-10T06:41:40.800Z,2.43
2019-01-10T06:45:48.059Z,2.45
2019-01-10T06:49:55.150Z,2.44
2019-01-10T06:54:02.311Z,2.40
2019-01-10T06:58:11.424Z,2.45
2019-01-10T07:02:18.538Z,2.45
2019-01-10T07:06:25.670Z,2.47
2019-01-10T07:10:33.019Z,2.57
2019-01-10T07:14:41.200Z,2.33
2019-01-10T07:18:48.333Z,2.37
2019-01-10T07:22:56.159Z,2.38
2019-01-10T07:27:03.730Z,2.41
2019-01-10T07:31:43.344Z,2.49
2019-01-10T07:35:56.288Z,2.38
2019-01-10T07:40:03.603Z,2.50
2019-01-10T07:44:10.626Z,2.48
2019-01-10T07:48:17.619Z,2.54
2019-01-10T07:52:29.731Z,2.55
2019-01-10T07:56:36.843Z,2.51
2019-01-10T08:00:43.857Z,2.57
2019-01-10T08:04:52.408Z,2.59
2019-01-10T08:09:00.985Z,2.57
2019-01-10T08:13:11.064Z,2.62
2019-01-10T08:17:21.634Z,2.59
2019-01-10T08:21:29.665Z,2.50
2019-01-10T08:25:36.563Z,2.64
2019-01-10T08:29:43.464Z,2.61
2019-01-10T08:33:50.443Z,2.70
2019-01-10T08:37:57.412Z,2.53
2019-01-10T08:42:04.338Z,2.62
2019-01-10T08:46:11.371Z,2.66
2019-01-10T08:50:25.278Z,2.72
2019-01-10T08:54:32.210Z,2.85
2019-01-10T08:58:39.066Z,2.83
2019-01-10T09:02:46.248Z,2.82
2019-01-10T09:06:54.134Z,2.95
2019-01-10T09:11:01.436Z,2.84
2019-01-10T09:15:11.703Z,2.79
2019-01-10T09:19:21.619Z,2.88
2019-01-10T09:23:39.345Z,2.92
2019-01-10T09:27:46.871Z,3.11
2019-01-10T09:31:54.007Z,2.93
2019-01-10T09:36:01.260Z,3.14
2019-01-10T09:40:12.613Z,3.10
2019-01-10T09:44:23.098Z,3.26
2019-01-10T09:48:30.108Z,3.30
2019-01-10T09:52:39.404Z,3.23
2019-01-10T09:56:46.371Z,3.42
2019-01-10T10:00:53.672Z,3.49
2019-01-10T10:05:00.907Z,3.49
2019-01-10T10:09:09.836Z,3.52
2019-01-10T10:13:19.681Z,3.26
2019-01-10T10:17:34.034Z,3.25
2019-01-10T10:21:44.081Z,3.44
2019-01-10T10:25:53.369Z,3.61
2019-01-10T10:30:00.902Z,3.50
2019-01-10T10:34:10.130Z,3.41
2019-01-10T10:38:19.780Z,3.40
2019-01-10T10:42:26.686Z,3.57
2019-01-10T10:46:33.782Z,3.43
2019-01-10T10:50:45.051Z,3.38
2019-01-10T10:54:52.694Z,3.45
2019-01-10T10:59:01.006Z,3.44
2019-01-10T11:03:10.381Z,3.46
2019-01-10T11:07:17.885Z,3.40
2019-01-10T11:11:28.070Z,3.33
2019-01-10T11:15:35.704Z,3.46
2019-01-10T11:19:44.744Z,3.57
2019-01-10T11:23:55.220Z,3.35
2019-01-10T11:28:11.327Z,3.39
2019-01-10T11:32:18.585Z,3.30
2019-01-10T11:36:25.700Z,3.19
2019-01-10T11:40:39.069Z,3.34
2019-01-10T11:44:46.481Z,3.26
2019-01-10T11:48:53.848Z,3.26
2019-01-10T11:53:07.322Z,3.18
2019-01-10T11:57:14.580Z,3.22
2019-01-10T12:01:28.578Z,3.43
2019-01-10T12:05:47.596Z,3.20
2019-01-10T12:09:52.040Z,3.42
2019-01-10T12:14:05.598Z,3.41
2019-01-10T12:18:12.615Z,3.24
2019-01-10T12:22:19.824Z,3.20
2019-01-10T12:26:27.178Z,3.09
2019-01-10T12:30:37.588Z,3.14
2019-01-10T12:34:44.654Z,3.16
2019-01-10T12:38:51.808Z,3.12
2019-01-10T12:42:58.894Z,3.13
2019-01-10T12:47:06.058Z,3.12
2019-01-10T12:51:12.948Z,3.03
2019-01-10T12:55:20.216Z,3.13
2019-01-10T12:59:28.425Z,3.09
2019-01-10T13:03:37.268Z,2.96
2019-01-10T13:07:45.375Z,2.96
2019-01-10T13:11:55.607Z,2.98
2019-01-10T13:16:02.569Z,2.98
2019-01-10T13:20:10.533Z,3.04
2019-01-10T13:24:17.497Z,2.93
2019-01-10T13:28:24.738Z,2.91
2019-01-10T13:32:31.720Z,2.82
2019-01-10T13:36:39.587Z,2.91
2019-01-10T13:40:50.307Z,2.85
2019-01-10T13:44:57.366Z,2.82
2019-01-10T13:49:04.291Z,2.87
2019-01-10T13:53:13.332Z,2.87
2019-01-10T13:57:22.025Z,2.92
2019-01-10T14:01:30.125Z,2.64
2019-01-10T14:05:39.020Z,2.71
2019-01-10T14:09:46.060Z,2.73
2019-01-10T14:13:54.062Z,2.79
2019-01-10T14:18:01.672Z,2.68
2019-01-10T14:22:08.663Z,2.84
2019-01-10T14:26:15.730Z,2.69
2019-01-10T14:30:30.946Z,2.66
2019-01-10T14:34:38.039Z,2.80
2019-01-10T14:38:45.320Z,2.92
2019-01-10T14:42:57.112Z,2.88
2019-01-10T14:47:07.667Z,2.80
2019-01-10T14:51:13.124Z,2.65
2019-01-10T14:55:20.193Z,2.59
2019-01-10T14:59:27.262Z,2.58
2019-01-10T15:03:34.409Z,2.51
2019-01-10T15:07:41.416Z,2.40
2019-01-10T15:11:48.730Z,2.35
2019-01-10T15:15:58.129Z,2.53
2019-01-10T15:20:07.456Z,2.45
2019-01-10T15:24:16.629Z,2.48
2019-01-10T15:28:24.701Z,2.45
2019-01-10T15:32:31.717Z,2.45
2019-01-10T15:36:39.064Z,2.50
2019-01-10T15:40:46.384Z,2.41
2019-01-10T15:44:55.079Z,2.28
2019-01-10T15:49:07.482Z,2.17
2019-01-10T15:53:17.420Z,2.22
2019-01-10T15:57:25.322Z,2.18
2019-01-10T16:01:35.794Z,2.11
2019-01-10T16:05:45.273Z,2.20
2019-01-10T16:09:52.584Z,2.19
2019-01-10T16:13:59.936Z,2.06
2019-01-10T16:18:07.120Z,2.07
2019-01-10T16:22:14.175Z,2.01
2019-01-10T16:26:30.336Z,2.01
2019-01-10T16:30:39.500Z,1.98
2019-01-10T16:34:46.606Z,2.02
2019-01-10T16:38:53.529Z,2.05
2019-01-10T16:43:02.531Z,1.99
2019-01-10T16:47:09.833Z,1.97
2019-01-10T16:51:17.029Z,2.77
2019-01-10T16:55:24.710Z,2.17
2019-01-10T16:59:31.827Z,2.37
2019-01-10T17:03:39.319Z,2.94
2019-01-10T17:07:49.246Z,2.23
2019-01-10T17:12:00.851Z,2.15
2019-01-10T17:16:10.305Z,2.18
2019-01-10T17:20:20.606Z,2.18
2019-01-10T17:24:27.814Z,1.83
2019-01-10T17:28:38.299Z,2.03
2019-01-10T17:32:45.560Z,1.75
2019-01-10T17:36:55.991Z,1.72
2019-01-10T17:41:03.258Z,1.51
2019-01-10T17:45:13.667Z,1.41
2019-01-10T17:49:22.838Z,1.45
2019-01-10T17:53:30.084Z,1.29
2019-01-10T17:57:37.247Z,1.27
2019-01-10T18:01:47.572Z,1.36
2019-01-10T18:05:54.903Z,1.22
2019-01-10T18:10:02.363Z,1.35
2019-01-10T18:14:09.682Z,1.36
2019-01-10T18:18:17.431Z,1.25
2019-01-10T18:22:24.754Z,1.14
2019-01-10T18:26:33.964Z,1.07
2019-01-10T18:30:43.988Z,1.14
2019-01-10T18:34:51.547Z,1.03
2019-01-10T18:38:58.801Z,1.08
2019-01-10T18:43:06.137Z,0.92
2019-01-10T18:47:15.070Z,1.01
2019-01-10T18:51:22.305Z,1.01
2019-01-10T18:55:29.471Z,1.04
2019-01-10T18:59:38.161Z,1.09
2019-01-10T19:03:45.586Z,1.07
2019-01-10T19:07:52.916Z,1.06
2019-01-10T19:12:00.095Z,1.09
2019-01-10T19:16:07.381Z,1.14
2019-01-10T19:20:21.893Z,1.09
2019-01-10T19:24:36.368Z,1.10
2019-01-10T19:28:43.750Z,1.11
2019-01-10T19:32:57.312Z,1.12
2019-01-10T19:37:07.516Z,1.29
2019-01-10T19:41:17.887Z,1.66
2019-01-10T19:45:30.984Z,1.31
2019-01-10T19:49:38.116Z,1.32
2019-01-10T19:53:45.883Z,1.29
2019-01-10T19:57:54.086Z,1.36
2019-01-10T20:02:02.332Z,1.35
2019-01-10T20:06:14.628Z,1.33
2019-01-10T20:10:23.630Z,1.39
2019-01-10T20:14:42.078Z,1.33
2019-01-10T20:18:53.221Z,1.42
2019-01-10T20:23:13.925Z,1.38
2019-01-10T20:27:37.919Z,1.36
2019-01-10T20:31:51.077Z,1.31
2019-01-10T20:49:41.822Z,1.37
2019-01-10T20:54:15.986Z,1.38
2019-01-10T20:58:36.553Z,1.47
2019-01-10T21:02:49.291Z,1.40
2019-01-10T21:06:58.454Z,1.39
2019-01-10T21:11:06.411Z,1.46
2019-01-10T21:15:31.304Z,1.45
2019-01-10T21:19:38.996Z,1.43
2019-01-10T21:23:46.822Z,1.40
2019-01-10T21:28:11.999Z,1.46
2019-01-10T21:32:50.230Z,1.51
2019-01-10T21:37:02.495Z,1.39
2019-01-10T21:41:12.162Z,1.46
2019-01-10T21:45:24.677Z,1.46
2019-01-10T21:49:32.117Z,1.44
2019-01-10T21:53:40.569Z,1.45
2019-01-10T21:57:51.248Z,1.47
2019-01-10T22:02:02.568Z,1.54
2019-01-10T22:06:11.768Z,1.55
2019-01-10T22:10:24.731Z,1.35
2019-01-10T22:14:33.161Z,1.52
2019-01-10T22:18:41.833Z,1.44
2019-01-10T22:22:52.636Z,1.42
2019-01-10T22:27:00.545Z,1.44
2019-01-10T22:31:10.722Z,1.51
2019-01-10T22:35:22.535Z,1.41
2019-01-10T22:39:29.527Z,1.58
2019-01-10T22:43:41.294Z,1.44
2019-01-10T22:47:48.430Z,1.45
2019-01-10T22:51:55.529Z,1.57
2019-01-10T22:56:06.511Z,1.62
2019-01-10T23:01:02.955Z,1.50
2019-01-10T23:05:11.512Z,1.55
2019-01-10T23:09:27.086Z,1.64
2019-01-10T23:13:34.104Z,1.83
2019-01-10T23:18:04.983Z,1.77
2019-01-10T23:22:19.899Z,1.62
2019-01-10T23:26:24.833Z,1.77
2019-01-10T23:31:09.926Z,1.56
2019-01-10T23:35:25.178Z,1.64
2019-01-10T23:39:32.127Z,1.49
2019-01-10T23:43:39.964Z,1.47
2019-01-10T23:47:52.040Z,1.43
2019-01-10T23:52:00.464Z,1.53
2019-01-10T23:56:16.027Z,1.58
